createdAt,value
2022-08-23T00:01:39.447Z,94584.94
2022-08-23T00:04:12.873Z,94584.16
2022-08-23T00:06:42.571Z,94586.63
2022-08-23T00:09:10.426Z,94583.09
2022-08-23T00:11:42.571Z,94590.19
2022-08-23T00:14:26.555Z,94589.31
2022-08-23T00:16:55.262Z,94594.59
2022-08-23T00:19:24.029Z,94589.69
2022-08-23T00:21:53.510Z,94583.72
2022-08-23T00:24:21.785Z,94585.16
2022-08-23T00:27:15.725Z,94580.81
2022-08-23T00:29:52.741Z,94584.44
2022-08-23T00:32:32.207Z,94579.38
2022-08-23T00:35:01.142Z,94576.91
2022-08-23T00:37:31.335Z,94571.59
2022-08-23T00:39:59.213Z,94573.59
2022-08-23T00:42:57.438Z,94578.38
2022-08-23T00:46:02.430Z,94573.66
2022-08-23T00:48:30.350Z,94572.50
2022-08-23T00:51:09.941Z,94575.72
2022-08-23T00:53:42.696Z,94583.81
2022-08-23T00:56:12.483Z,94572.84
2022-08-23T00:58:39.657Z,94576.81
2022-08-23T01:01:07.782Z,94575.88
2022-08-23T01:03:40.337Z,94574.44
2022-08-23T01:06:25.062Z,94566.81
2022-08-23T01:08:58.083Z,94571.06
2022-08-23T01:11:33.422Z,94579.44
2022-08-23T01:14:27.973Z,94578.41
2022-08-23T01:17:11.239Z,94567.84
2022-08-23T01:19:41.907Z,94571.63
2022-08-23T01:22:17.820Z,94575.00
2022-08-23T01:25:07.741Z,94577.63
2022-08-23T01:27:33.199Z,94571.41
2022-08-23T01:30:00.278Z,94578.63
2022-08-23T01:32:27.474Z,94576.63
2022-08-23T01:34:54.318Z,94594.44
2022-08-23T01:37:22.189Z,94588.44
2022-08-23T01:39:49.113Z,94581.72
2022-08-23T01:42:15.968Z,94593.72
2022-08-23T01:44:42.762Z,94585.16
2022-08-23T01:47:09.561Z,94585.34
2022-08-23T01:49:36.358Z,94577.53
2022-08-23T01:52:03.845Z,94565.16
2022-08-23T01:54:30.639Z,94569.63
2022-08-23T01:56:57.508Z,94580.00
2022-08-23T01:59:24.458Z,94583.00
2022-08-23T02:01:51.709Z,94577.09
2022-08-23T02:04:18.881Z,94577.81
2022-08-23T02:06:46.091Z,94582.19
2022-08-23T02:09:17.341Z,94592.19
2022-08-23T02:11:46.043Z,94593.47
2022-08-23T02:14:19.815Z,94597.31
2022-08-23T02:17:03.062Z,94594.75
2022-08-23T02:19:36.741Z,94590.91
2022-08-23T02:22:06.072Z,94590.84
2022-08-23T02:24:33.192Z,94594.28
2022-08-23T02:27:04.426Z,94588.28
2022-08-23T02:29:35.175Z,94585.56
2022-08-23T02:32:06.226Z,94590.25
2022-08-23T02:34:33.485Z,94581.97
2022-08-23T02:37:00.977Z,94587.34
2022-08-23T02:39:28.228Z,94587.41
2022-08-23T02:41:55.059Z,94607.16
2022-08-23T02:44:22.208Z,94601.00
2022-08-23T02:46:49.471Z,94597.16
2022-08-23T02:49:17.534Z,94604.06
2022-08-23T02:51:44.685Z,94608.19
2022-08-23T02:54:11.977Z,94611.28
2022-08-23T02:56:39.377Z,94599.06
2022-08-23T02:59:06.801Z,94600.22
2022-08-23T03:01:38.166Z,94606.59
2022-08-23T03:04:08.714Z,94608.84
2022-08-23T03:06:36.478Z,94611.47
2022-08-23T03:09:06.290Z,94597.50
2022-08-23T03:11:33.908Z,94623.75
2022-08-23T03:14:01.398Z,94612.25
2022-08-23T03:16:28.564Z,94616.22
2022-08-23T03:18:55.406Z,94610.22
2022-08-23T03:21:22.943Z,94611.53
2022-08-23T03:23:49.894Z,94610.06
2022-08-23T03:26:17.557Z,94603.75
2022-08-23T03:28:45.870Z,94609.78
2022-08-23T03:31:14.275Z,94617.91
2022-08-23T03:33:41.258Z,94619.91
2022-08-23T03:36:10.989Z,94612.72
2022-08-23T03:38:39.562Z,94620.53
2022-08-23T03:41:07.369Z,94606.25
2022-08-23T03:43:35.041Z,94602.22
2022-08-23T03:46:01.833Z,94620.75
2022-08-23T03:48:28.649Z,94614.31
2022-08-23T03:50:55.506Z,94619.97
2022-08-23T03:53:23.926Z,94623.78
2022-08-23T03:55:53.480Z,94610.31
2022-08-23T03:58:21.782Z,94618.91
2022-08-23T04:00:48.932Z,94620.97
2022-08-23T04:03:16.231Z,94625.72
2022-08-23T04:05:43.678Z,94626.28
2022-08-23T04:08:11.421Z,94633.31
2022-08-23T04:10:39.450Z,94626.03
2022-08-23T04:13:09.386Z,94638.13
2022-08-23T04:15:36.716Z,94633.72
2022-08-23T04:18:04.423Z,94645.66
2022-08-23T04:20:31.343Z,94649.38
2022-08-23T04:22:58.692Z,94649.44
2022-08-23T04:25:34.864Z,94653.38
2022-08-23T04:28:03.511Z,94646.81
2022-08-23T04:30:32.344Z,94648.19
2022-08-23T04:32:59.213Z,94653.34
2022-08-23T04:35:28.812Z,94654.03
2022-08-23T04:37:55.707Z,94657.75
2022-08-23T04:40:41.350Z,94656.75
2022-08-23T04:43:08.762Z,94657.34
2022-08-23T04:45:39.309Z,94659.28
2022-08-23T04:48:11.836Z,94654.22
2022-08-23T04:50:40.011Z,94667.88
2022-08-23T04:53:07.785Z,94665.16
2022-08-23T04:55:36.311Z,94669.31
2022-08-23T04:58:05.161Z,94667.63
2022-08-23T05:00:32.682Z,94663.34
2022-08-23T05:02:59.898Z,94665.50
2022-08-23T05:05:27.760Z,94666.66
2022-08-23T05:07:55.302Z,94660.78
2022-08-23T05:10:22.290Z,94675.53
2022-08-23T05:12:49.161Z,94674.34
2022-08-23T05:15:16.353Z,94656.75
2022-08-23T05:17:43.622Z,94673.50
2022-08-23T05:20:11.107Z,94678.78
2022-08-23T05:22:41.797Z,94677.50
2022-08-23T05:25:09.694Z,94677.47
2022-08-23T05:27:36.966Z,94674.47
2022-08-23T05:30:06.269Z,94676.09
2022-08-23T05:32:33.723Z,94673.28
2022-08-23T05:35:01.241Z,94679.97
2022-08-23T05:37:28.285Z,94686.31
2022-08-23T05:39:55.037Z,94681.53
2022-08-23T05:42:22.477Z,94672.59
2022-08-23T05:44:49.295Z,94674.25
2022-08-23T05:47:17.549Z,94679.94
2022-08-23T05:49:51.535Z,94678.34
2022-08-23T05:52:18.338Z,94676.03
2022-08-23T05:54:45.189Z,94681.75
2022-08-23T05:57:11.937Z,94683.38
2022-08-23T05:59:39.494Z,94682.38
2022-08-23T06:02:06.222Z,94694.66
2022-08-23T06:04:33.246Z,94692.81
2022-08-23T06:07:00.095Z,94698.81
2022-08-23T06:09:27.126Z,94696.13
2022-08-23T06:11:54.164Z,94693.31
2022-08-23T06:14:22.585Z,94700.16
2022-08-23T06:16:55.572Z,94694.97
2022-08-23T06:19:24.190Z,94689.34
2022-08-23T06:21:52.869Z,94692.81
2022-08-23T06:24:20.507Z,94701.84
2022-08-23T06:26:47.802Z,94684.38
2022-08-23T06:29:19.181Z,94696.47
2022-08-23T06:31:49.533Z,94707.06
2022-08-23T06:34:33.444Z,94707.69
2022-08-23T06:37:07.587Z,94712.19
2022-08-23T06:39:37.673Z,94712.56
2022-08-23T06:42:38.378Z,94710.78
2022-08-23T06:45:04.263Z,94702.88
2022-08-23T06:47:31.762Z,94710.78
2022-08-23T06:49:59.033Z,94701.53
2022-08-23T06:52:27.699Z,94695.47
2022-08-23T06:54:55.188Z,94710.09
2022-08-23T06:57:22.138Z,94697.75
2022-08-23T06:59:50.128Z,94710.53
2022-08-23T07:02:17.431Z,94707.38
2022-08-23T07:04:44.430Z,94704.38
2022-08-23T07:07:12.527Z,94706.38
2022-08-23T07:09:41.214Z,94702.41
2022-08-23T07:12:09.117Z,94713.91
2022-08-23T07:14:38.154Z,94711.97
2022-08-23T07:17:06.028Z,94702.22
2022-08-23T07:19:35.873Z,94722.75
2022-08-23T07:22:05.584Z,94718.13
2022-08-23T07:24:34.072Z,94705.69
2022-08-23T07:27:06.896Z,94710.03
2022-08-23T07:29:37.376Z,94707.16
2022-08-23T07:32:04.853Z,94712.69
2022-08-23T07:34:32.024Z,94718.81
2022-08-23T07:36:58.841Z,94718.16
2022-08-23T07:39:26.662Z,94715.41
2022-08-23T07:41:53.567Z,94707.59
2022-08-23T07:44:27.180Z,94707.09
2022-08-23T07:46:54.751Z,94713.97
2022-08-23T07:49:22.161Z,94724.50
2022-08-23T07:51:51.141Z,94714.16
2022-08-23T07:54:20.234Z,94721.34
2022-08-23T07:56:47.078Z,94725.53
2022-08-23T07:59:14.361Z,94722.06
2022-08-23T08:01:44.040Z,94721.19
2022-08-23T08:04:11.589Z,94728.19
2022-08-23T08:07:04.761Z,94735.78
2022-08-23T08:09:35.647Z,94730.69
2022-08-23T08:12:02.500Z,94735.84
2022-08-23T08:14:29.284Z,94738.34
2022-08-23T08:16:58.627Z,94729.13
2022-08-23T08:19:25.595Z,94728.97
2022-08-23T08:21:52.445Z,94734.91
2022-08-23T08:24:19.303Z,94737.78
2022-08-23T08:26:46.972Z,94746.09
2022-08-23T08:29:14.833Z,94745.63
2022-08-23T08:31:45.443Z,94747.84
2022-08-23T08:34:13.498Z,94744.34
2022-08-23T08:36:45.817Z,94758.28
2022-08-23T08:39:20.722Z,94748.44
2022-08-23T08:42:04.751Z,94750.28
2022-08-23T08:44:42.389Z,94753.00
2022-08-23T08:47:48.508Z,94748.84
2022-08-23T08:50:26.726Z,94754.44
2022-08-23T08:53:24.024Z,94750.09
2022-08-23T08:55:56.387Z,94756.56
2022-08-23T08:58:31.002Z,94747.66
2022-08-23T09:00:58.880Z,94759.81
2022-08-23T09:03:33.196Z,94748.97
2022-08-23T09:06:21.692Z,94750.94
2022-08-23T09:09:42.176Z,94745.38
2022-08-23T09:12:56.133Z,94743.53
2022-08-23T09:15:39.684Z,94755.56
2022-08-23T09:18:15.089Z,94753.72
2022-08-23T09:20:45.802Z,94743.88
2022-08-23T09:23:23.063Z,94754.56
2022-08-23T09:26:03.473Z,94745.34
2022-08-23T09:28:36.483Z,94743.75
2022-08-23T09:31:08.227Z,94741.63
2022-08-23T09:33:49.022Z,94756.41
2022-08-23T09:36:23.624Z,94757.38
2022-08-23T09:39:30.886Z,94758.00
2022-08-23T09:41:59.407Z,94757.53
2022-08-23T09:44:40.640Z,94759.41
2022-08-23T09:47:17.266Z,94749.56
2022-08-23T09:49:48.416Z,94751.81
2022-08-23T09:52:25.689Z,94752.13
2022-08-23T09:55:26.045Z,94750.03
2022-08-23T09:57:53.454Z,94759.69
2022-08-23T10:00:34.281Z,94757.59
2022-08-23T10:03:27.710Z,94752.69
2022-08-23T10:06:00.964Z,94763.00
2022-08-23T10:08:35.436Z,94754.03
2022-08-23T10:11:16.323Z,94751.66
2022-08-23T10:13:43.736Z,94743.06
2022-08-23T10:16:36.830Z,94744.69
2022-08-23T10:19:15.514Z,94753.88
2022-08-23T10:21:57.797Z,94754.00
2022-08-23T10:24:43.997Z,94747.28
2022-08-23T10:27:51.063Z,94741.63
2022-08-23T10:30:42.585Z,94738.13
2022-08-23T10:33:22.397Z,94736.25
2022-08-23T10:36:09.292Z,94747.84
2022-08-23T10:39:16.719Z,94742.47
2022-08-23T10:42:31.809Z,94737.84
2022-08-23T10:45:20.253Z,94741.63
2022-08-23T10:48:28.912Z,94735.94
2022-08-23T10:51:08.255Z,94732.38
2022-08-23T10:53:49.101Z,94733.44
2022-08-23T10:56:21.218Z,94733.69
2022-08-23T10:58:57.635Z,94734.13
2022-08-23T11:01:37.847Z,94737.19
2022-08-23T11:04:14.954Z,94732.38
2022-08-23T11:06:56.521Z,94731.78
2022-08-23T11:09:25.825Z,94717.41
2022-08-23T11:12:24.266Z,94729.50
2022-08-23T11:14:59.933Z,94719.81
2022-08-23T11:17:56.109Z,94719.72
2022-08-23T11:20:50.606Z,94729.66
2022-08-23T11:23:40.780Z,94719.75
2022-08-23T11:26:36.452Z,94717.97
2022-08-23T11:29:06.309Z,94721.00
2022-08-23T11:32:16.725Z,94713.09
2022-08-23T11:35:05.863Z,94716.41
2022-08-23T11:38:04.798Z,94722.94
2022-08-23T11:40:49.484Z,94713.50
2022-08-23T11:43:32.104Z,94713.84
2022-08-23T11:46:23.404Z,94715.72
2022-08-23T11:49:24.668Z,94710.06
2022-08-23T11:52:25.265Z,94716.16
2022-08-23T11:55:00.816Z,94707.84
2022-08-23T11:58:21.130Z,94710.13
2022-08-23T12:01:22.843Z,94705.09
2022-08-23T12:04:10.885Z,94716.59
2022-08-23T12:07:01.696Z,94701.59
2022-08-23T12:09:28.402Z,94701.31
2022-08-23T12:11:55.097Z,94703.41
2022-08-23T12:14:40.296Z,94692.59
2022-08-23T12:17:13.068Z,94703.44
2022-08-23T12:19:49.798Z,94702.38
2022-08-23T12:22:25.039Z,94701.47
2022-08-23T12:25:06.222Z,94708.66
2022-08-23T12:27:41.809Z,94703.50
2022-08-23T12:30:22.526Z,94709.38
2022-08-23T12:32:57.602Z,94707.03
2022-08-23T12:36:03.904Z,94696.97
2022-08-23T12:39:01.860Z,94694.47
2022-08-23T12:41:33.805Z,94703.56
2022-08-23T12:44:10.493Z,94697.81
2022-08-23T12:46:43.613Z,94701.31
2022-08-23T12:49:23.471Z,94696.09
2022-08-23T12:51:54.333Z,94691.75
2022-08-23T12:54:35.016Z,94697.28
2022-08-23T12:57:09.909Z,94698.31
2022-08-23T12:59:43.563Z,94691.00
2022-08-23T13:02:14.275Z,94691.59
2022-08-23T13:04:43.289Z,94689.50
2022-08-23T13:07:22.235Z,94690.59
2022-08-23T13:09:53.617Z,94683.19
2022-08-23T13:12:22.779Z,94680.03
2022-08-23T13:14:52.887Z,94686.66
2022-08-23T13:17:25.580Z,94689.88
2022-08-23T13:20:22.937Z,94689.19
2022-08-23T13:23:09.423Z,94697.47
2022-08-23T13:25:40.778Z,94696.09
2022-08-23T13:28:27.590Z,94695.16
2022-08-23T13:31:06.130Z,94690.31
2022-08-23T13:33:33.084Z,94686.19
2022-08-23T13:36:13.728Z,94689.81
2022-08-23T13:38:42.468Z,94679.28
2022-08-23T13:41:14.089Z,94683.03
2022-08-23T13:43:51.180Z,94683.63
2022-08-23T13:46:22.831Z,94686.34
2022-08-23T13:48:52.667Z,94681.84
2022-08-23T13:51:42.633Z,94677.75
2022-08-23T13:54:15.326Z,94690.50
2022-08-23T13:57:15.937Z,94692.41
2022-08-23T13:59:54.860Z,94679.50
2022-08-23T14:02:24.274Z,94677.81
2022-08-23T14:04:51.431Z,94682.94
2022-08-23T14:07:18.854Z,94671.28
2022-08-23T14:09:45.692Z,94673.06
2022-08-23T14:12:18.971Z,94671.31
2022-08-23T14:14:46.613Z,94669.81
2022-08-23T14:17:16.995Z,94665.84
2022-08-23T14:22:34.938Z,94675.34
2022-08-23T14:25:01.878Z,94670.84
2022-08-23T14:27:28.702Z,94667.03
2022-08-23T14:29:55.510Z,94660.19
2022-08-23T14:32:22.442Z,94666.13
2022-08-23T14:34:49.376Z,94665.78
2022-08-23T14:40:05.105Z,94670.22
2022-08-23T14:42:32.293Z,94659.69
2022-08-23T14:44:59.089Z,94667.91
2022-08-23T14:47:26.938Z,94668.56
2022-08-23T14:49:54.252Z,94662.22
2022-08-23T14:52:22.284Z,94668.97
2022-08-23T14:54:49.938Z,94663.38
2022-08-23T14:57:16.898Z,94672.84
2022-08-23T14:59:43.754Z,94667.78
2022-08-23T15:02:13.844Z,94664.16
2022-08-23T15:04:42.244Z,94665.94
2022-08-23T15:07:18.563Z,94674.09
2022-08-23T15:09:51.509Z,94661.31
2022-08-23T15:15:15.975Z,94671.66
2022-08-23T15:17:56.264Z,94669.13
2022-08-23T15:20:28.326Z,94655.22
2022-08-23T15:22:56.155Z,94662.41
2022-08-23T15:25:25.612Z,94664.50
2022-08-23T15:27:53.253Z,94667.13
2022-08-23T15:30:22.010Z,94661.09
2022-08-23T15:32:52.720Z,94658.22
2022-08-23T15:35:25.084Z,94657.63
2022-08-23T15:37:54.598Z,94655.97
2022-08-23T15:40:21.787Z,94661.41
2022-08-23T15:42:48.893Z,94656.53
2022-08-23T15:45:15.794Z,94662.19
2022-08-23T15:47:56.252Z,94650.50
2022-08-23T15:50:27.981Z,94657.50
2022-08-23T15:52:55.233Z,94650.97
2022-08-23T15:55:22.157Z,94660.75
2022-08-23T15:57:52.420Z,94652.03
2022-08-23T16:00:22.682Z,94653.78
2022-08-23T16:03:19.947Z,94656.44
2022-08-23T16:05:41.256Z,94662.94
2022-08-23T16:08:09.164Z,94654.75
2022-08-23T16:10:36.001Z,94647.59
2022-08-23T16:13:03.855Z,94649.25
2022-08-23T16:15:30.786Z,94650.91
2022-08-23T16:17:57.897Z,94647.56
2022-08-23T16:20:25.470Z,94650.47
2022-08-23T16:22:52.268Z,94641.91
2022-08-23T16:25:19.435Z,94644.78
2022-08-23T16:27:46.256Z,94649.38
2022-08-23T16:30:14.407Z,94644.56
2022-08-23T16:32:41.835Z,94647.31
2022-08-23T16:35:09.790Z,94627.28
2022-08-23T16:37:36.716Z,94645.78
2022-08-23T16:40:09.385Z,94649.81
2022-08-23T16:42:36.536Z,94646.50
2022-08-23T16:45:03.934Z,94640.94
2022-08-23T16:47:36.942Z,94647.13
2022-08-23T16:50:05.068Z,94650.91
2022-08-23T16:52:34.660Z,94650.63
2022-08-23T16:55:06.102Z,94659.03
2022-08-23T16:57:33.269Z,94643.38
2022-08-23T17:00:00.042Z,94658.47
2022-08-23T17:02:33.127Z,94655.22
2022-08-23T17:05:00.181Z,94651.19
2022-08-23T17:07:27.261Z,94658.75
2022-08-23T17:09:54.020Z,94659.00
2022-08-23T17:12:21.708Z,94662.25
2022-08-23T17:14:50.869Z,94663.91
2022-08-23T17:17:18.389Z,94663.38
2022-08-23T17:19:45.162Z,94667.09
2022-08-23T17:22:12.586Z,94668.22
2022-08-23T17:24:39.522Z,94674.41
2022-08-23T17:27:07.595Z,94674.09
2022-08-23T17:29:37.439Z,94675.44
2022-08-23T17:32:05.354Z,94673.56
2022-08-23T17:34:32.178Z,94675.66
2022-08-23T17:36:59.073Z,94675.59
2022-08-23T17:39:29.308Z,94672.28
2022-08-23T17:41:58.006Z,94679.19
2022-08-23T17:44:25.279Z,94689.91
2022-08-23T17:46:52.164Z,94689.34
2022-08-23T17:49:19.902Z,94695.97
2022-08-23T17:51:46.976Z,94700.91
2022-08-23T17:54:16.387Z,94695.41
2022-08-23T17:56:50.123Z,94698.97
2022-08-23T17:59:19.434Z,94706.44
2022-08-23T18:01:47.010Z,94702.06
2022-08-23T18:04:14.111Z,94707.00
2022-08-23T18:06:41.217Z,94721.75
2022-08-23T18:09:08.535Z,94698.69
2022-08-23T18:11:35.475Z,94720.13
2022-08-23T18:14:03.014Z,94719.94
2022-08-23T18:16:34.981Z,94714.94
2022-08-23T18:19:04.826Z,94724.47
2022-08-23T18:21:32.015Z,94726.22
2022-08-23T18:23:59.569Z,94723.63
2022-08-23T18:26:46.261Z,94729.84
2022-08-23T18:29:14.540Z,94733.13
2022-08-23T18:31:45.031Z,94734.59
2022-08-23T18:34:13.202Z,94741.31
2022-08-23T18:36:40.561Z,94744.38
2022-08-23T18:39:09.016Z,94754.03
2022-08-23T18:41:36.518Z,94758.31
2022-08-23T18:44:05.663Z,94748.47
2022-08-23T18:46:39.012Z,94758.19
2022-08-23T18:49:08.174Z,94760.53
2022-08-23T18:51:35.651Z,94755.44
2022-08-23T18:54:02.901Z,94764.34
2022-08-23T18:56:29.730Z,94747.97
2022-08-23T18:58:56.507Z,94771.22
2022-08-23T19:01:36.800Z,94776.13
2022-08-23T19:04:07.216Z,94781.22
2022-08-23T19:06:34.657Z,94786.78
2022-08-23T19:09:01.565Z,94791.44
2022-08-23T19:11:29.440Z,94785.34
2022-08-23T19:13:58.218Z,94794.53
2022-08-23T19:16:26.427Z,94797.88
2022-08-23T19:18:54.902Z,94792.28
2022-08-23T19:21:24.553Z,94810.50
2022-08-23T19:23:54.073Z,94806.91
2022-08-23T19:26:25.967Z,94802.59
2022-08-23T19:28:53.123Z,94815.59
2022-08-23T19:31:20.003Z,94819.38
2022-08-23T19:33:46.804Z,94819.81
2022-08-23T19:36:35.613Z,94818.19
2022-08-23T19:39:00.678Z,94804.50
2022-08-23T19:41:27.513Z,94813.00
2022-08-23T19:43:54.295Z,94818.91
2022-08-23T19:46:21.194Z,94807.63
2022-08-23T19:48:48.792Z,94810.75
2022-08-23T19:51:21.085Z,94828.53
2022-08-23T19:54:11.191Z,94831.47
2022-08-23T19:56:48.507Z,94827.88
2022-08-23T19:59:24.583Z,94840.50
2022-08-23T20:01:53.542Z,94824.97
2022-08-23T20:04:22.533Z,94843.75
2022-08-23T20:06:50.593Z,94840.97
2022-08-23T20:09:19.322Z,94822.91
2022-08-23T20:11:46.659Z,94852.63
2022-08-23T20:14:13.720Z,94861.72
2022-08-23T20:16:41.518Z,94845.88
2022-08-23T20:19:10.741Z,94849.38
2022-08-23T20:21:40.094Z,94849.81
2022-08-23T20:24:11.727Z,94850.25
2022-08-23T20:26:46.769Z,94849.25
2022-08-23T20:29:25.322Z,94852.94
2022-08-23T20:31:57.200Z,94862.19
2022-08-23T20:34:27.016Z,94846.69
2022-08-23T20:36:56.263Z,94856.47
2022-08-23T20:39:24.332Z,94844.44
2022-08-23T20:41:52.935Z,94856.56
2022-08-23T20:44:21.737Z,94856.13
2022-08-23T20:46:53.780Z,94856.78
2022-08-23T20:49:22.478Z,94864.97
2022-08-23T20:51:50.305Z,94855.19
2022-08-23T20:54:18.231Z,94867.63
2022-08-23T20:56:45.106Z,94868.25
2022-08-23T20:59:14.603Z,94857.84
2022-08-23T21:01:41.409Z,94850.84
2022-08-23T21:04:08.289Z,94867.22
2022-08-23T21:06:45.376Z,94866.84
2022-08-23T21:09:17.207Z,94859.03
2022-08-23T21:11:44.190Z,94851.28
2022-08-23T21:14:11.515Z,94878.88
2022-08-23T21:16:38.734Z,94870.91
2022-08-23T21:19:06.520Z,94866.00
2022-08-23T21:21:33.830Z,94876.19
2022-08-23T21:24:01.042Z,94860.97
2022-08-23T21:26:27.869Z,94866.28
2022-08-23T21:28:54.727Z,94860.94
2022-08-23T21:31:24.946Z,94863.34
2022-08-23T21:33:52.937Z,94868.28
2022-08-23T21:36:22.180Z,94864.00
2022-08-23T21:38:49.969Z,94858.91
2022-08-23T21:41:38.208Z,94865.63
2022-08-23T21:44:14.960Z,94857.16
2022-08-23T21:46:43.079Z,94864.91
2022-08-23T21:49:12.151Z,94864.91
2022-08-23T21:51:46.422Z,94867.81
2022-08-23T21:54:14.505Z,94852.28
2022-08-23T21:56:42.094Z,94866.78
2022-08-23T21:59:13.170Z,94864.88
2022-08-23T22:01:41.652Z,94856.63
2022-08-23T22:04:15.080Z,94863.53
2022-08-23T22:06:46.368Z,94856.63
2022-08-23T22:09:20.769Z,94872.22
2022-08-23T22:11:55.382Z,94864.69
2022-08-23T22:14:25.146Z,94856.25
2022-08-23T22:16:59.817Z,94857.41
2022-08-23T22:19:28.307Z,94856.88
2022-08-23T22:21:57.233Z,94842.44
2022-08-23T22:24:26.082Z,94861.00
2022-08-23T22:26:53.481Z,94852.41
2022-08-23T22:29:20.270Z,94848.09
2022-08-23T22:31:48.669Z,94846.97
2022-08-23T22:34:15.930Z,94857.44
2022-08-23T22:36:42.829Z,94854.16
2022-08-23T22:39:09.878Z,94852.50
2022-08-23T22:41:37.349Z,94848.44
2022-08-23T22:44:04.501Z,94847.81
2022-08-23T22:46:34.196Z,94846.81
2022-08-23T22:49:01.844Z,94842.31
2022-08-23T22:51:32.772Z,94846.06
2022-08-23T22:54:04.298Z,94847.53
2022-08-23T22:56:40.994Z,94841.31
2022-08-23T22:59:08.968Z,94832.69
2022-08-23T23:01:41.966Z,94832.06
2022-08-23T23:04:14.636Z,94838.72
2022-08-23T23:06:41.755Z,94826.88
2022-08-23T23:09:10.853Z,94830.38
2022-08-23T23:11:40.178Z,94827.66
2022-08-23T23:14:09.017Z,94842.78
2022-08-23T23:16:36.266Z,94835.13
2022-08-23T23:19:21.614Z,94839.50
2022-08-23T23:21:54.404Z,94840.31
2022-08-23T23:24:29.384Z,94834.81
2022-08-23T23:26:57.190Z,94837.94
2022-08-23T23:29:25.002Z,94836.91
2022-08-23T23:31:51.875Z,94833.50
2022-08-23T23:34:19.440Z,94845.69
2022-08-23T23:36:46.930Z,94824.19
2022-08-23T23:39:15.818Z,94839.94
2022-08-23T23:41:43.334Z,94842.06
2022-08-23T23:44:10.141Z,94827.44
2022-08-23T23:46:36.981Z,94825.06
2022-08-23T23:49:04.470Z,94841.72
2022-08-23T23:51:32.918Z,94843.59
2022-08-23T23:54:01.327Z,94838.56
2022-08-23T23:56:30.726Z,94827.44
2022-08-23T23:58:58.787Z,94823.25
